createdAt,value
2022-08-24T00:02:06.373Z,49.73
2022-08-24T00:04:35.727Z,49.71
2022-08-24T00:07:12.994Z,49.57
2022-08-24T00:09:54.734Z,49.43
2022-08-24T00:12:23.578Z,49.66
2022-08-24T00:14:51.975Z,49.16
2022-08-24T00:17:20.935Z,49.54
2022-08-24T00:19:49.413Z,49.50
2022-08-24T00:22:19.113Z,49.85
2022-08-24T00:24:47.443Z,49.56
2022-08-24T00:27:15.741Z,49.56
2022-08-24T00:29:44.116Z,49.64
2022-08-24T00:32:12.610Z,49.95
2022-08-24T00:34:40.902Z,49.91
2022-08-24T00:37:16.203Z,49.68
2022-08-24T00:39:45.979Z,49.97
2022-08-24T00:42:14.380Z,50.13
2022-08-24T00:44:42.693Z,50.33
2022-08-24T00:47:18.625Z,49.87
2022-08-24T00:49:55.666Z,50.28
2022-08-24T00:52:31.699Z,50.33
2022-08-24T00:55:06.788Z,50.39
2022-08-24T00:57:42.038Z,50.26
2022-08-24T01:00:15.659Z,50.32
2022-08-24T01:02:49.478Z,50.12
2022-08-24T01:05:19.319Z,50.46
2022-08-24T01:07:50.754Z,50.63
2022-08-24T01:10:25.917Z,50.53
2022-08-24T01:13:01.455Z,50.56
2022-08-24T01:15:34.718Z,50.82
2022-08-24T01:18:21.604Z,50.65
2022-08-24T01:21:05.103Z,50.59
2022-08-24T01:23:41.301Z,50.94
2022-08-24T01:26:14.173Z,50.94
2022-08-24T01:28:47.564Z,50.73
2022-08-24T01:31:20.774Z,50.72
2022-08-24T01:33:50.838Z,50.87
2022-08-24T01:36:31.357Z,50.70
2022-08-24T01:39:05.738Z,50.66
2022-08-24T01:41:34.099Z,50.93
2022-08-24T01:44:02.373Z,50.96
2022-08-24T01:46:30.769Z,51.21
2022-08-24T01:49:00.069Z,51.34
2022-08-24T01:51:32.610Z,51.03
2022-08-24T01:54:03.495Z,50.89
2022-08-24T01:56:33.961Z,50.99
2022-08-24T01:59:02.737Z,51.21
2022-08-24T02:01:34.472Z,51.14
2022-08-24T02:04:06.444Z,51.46
2022-08-24T02:06:38.516Z,51.53
2022-08-24T02:09:08.620Z,51.51
2022-08-24T02:11:39.006Z,51.45
2022-08-24T02:14:07.668Z,51.45
2022-08-24T02:16:36.853Z,51.69
2022-08-24T02:19:05.226Z,51.46
2022-08-24T02:21:33.991Z,51.43
2022-08-24T02:24:02.391Z,51.59
2022-08-24T02:26:32.153Z,51.37
2022-08-24T02:29:03.656Z,51.43
2022-08-24T02:31:32.410Z,51.61
2022-08-24T02:34:00.847Z,51.76
2022-08-24T02:36:29.173Z,51.63
2022-08-24T02:38:57.926Z,51.84
2022-08-24T02:41:27.013Z,51.84
2022-08-24T02:43:57.801Z,52.06
2022-08-24T02:46:30.080Z,51.93
2022-08-24T02:49:11.041Z,51.79
2022-08-24T02:51:44.638Z,52.21
2022-08-24T02:54:17.611Z,52.00
2022-08-24T02:56:46.424Z,51.99
2022-08-24T02:59:16.805Z,51.89
2022-08-24T03:01:46.249Z,52.17
2022-08-24T03:04:14.853Z,52.45
2022-08-24T03:06:44.640Z,52.40
2022-08-24T03:09:13.865Z,52.72
2022-08-24T03:11:42.699Z,52.60
2022-08-24T03:14:15.581Z,53.01
2022-08-24T03:16:44.021Z,53.54
2022-08-24T03:19:12.440Z,53.92
2022-08-24T03:21:41.727Z,53.91
2022-08-24T03:24:10.385Z,54.16
2022-08-24T03:26:39.187Z,54.17
2022-08-24T03:29:12.614Z,54.50
2022-08-24T03:31:42.406Z,54.37
2022-08-24T03:34:13.717Z,54.46
2022-08-24T03:36:45.957Z,54.47
2022-08-24T03:39:14.869Z,54.57
2022-08-24T03:41:43.205Z,54.47
2022-08-24T03:44:11.555Z,54.37
2022-08-24T03:46:42.271Z,54.51
2022-08-24T03:49:11.727Z,54.25
2022-08-24T03:51:40.472Z,54.57
2022-08-24T03:54:10.997Z,54.17
2022-08-24T03:56:39.845Z,54.28
2022-08-24T03:59:10.621Z,54.58
2022-08-24T04:01:40.196Z,54.43
2022-08-24T04:04:10.065Z,54.31
2022-08-24T04:06:40.442Z,54.08
2022-08-24T04:09:08.785Z,54.14
2022-08-24T04:11:40.951Z,53.80
2022-08-24T04:14:12.103Z,54.13
2022-08-24T04:16:57.297Z,54.35
2022-08-24T04:19:28.575Z,54.17
2022-08-24T04:21:57.444Z,54.03
2022-08-24T04:24:26.905Z,54.26
2022-08-24T04:26:55.328Z,54.17
2022-08-24T04:29:23.706Z,54.39
2022-08-24T04:31:52.246Z,54.67
2022-08-24T04:34:20.645Z,54.81
2022-08-24T04:36:50.373Z,54.70
2022-08-24T04:39:18.668Z,54.71
2022-08-24T04:41:46.990Z,54.77
2022-08-24T04:44:19.016Z,54.63
2022-08-24T04:46:47.402Z,54.59
2022-08-24T04:49:15.775Z,54.44
2022-08-24T04:51:44.143Z,54.74
2022-08-24T04:54:13.930Z,54.44
2022-08-24T04:56:42.247Z,54.39
2022-08-24T04:59:10.594Z,54.68
2022-08-24T05:01:39.020Z,54.67
2022-08-24T05:04:07.416Z,54.42
2022-08-24T05:06:36.053Z,54.42
2022-08-24T05:09:07.282Z,54.73
2022-08-24T05:11:40.780Z,54.77
2022-08-24T05:14:11.258Z,55.04
2022-08-24T05:16:45.728Z,54.99
2022-08-24T05:19:22.186Z,55.23
2022-08-24T05:21:50.568Z,55.14
2022-08-24T05:24:19.690Z,55.21
2022-08-24T05:26:49.861Z,55.45
2022-08-24T05:29:19.060Z,55.51
2022-08-24T05:31:47.987Z,55.72
2022-08-24T05:34:16.573Z,55.70
2022-08-24T05:36:45.382Z,55.93
2022-08-24T05:39:15.609Z,56.02
2022-08-24T05:41:48.097Z,56.15
2022-08-24T05:44:18.960Z,55.93
2022-08-24T05:46:47.487Z,56.03
2022-08-24T05:49:15.856Z,56.01
2022-08-24T05:51:44.131Z,56.51
2022-08-24T05:54:14.682Z,56.05
2022-08-24T05:56:44.862Z,56.37
2022-08-24T05:59:17.499Z,56.02
2022-08-24T06:01:45.903Z,56.52
2022-08-24T06:04:14.585Z,56.42
2022-08-24T06:06:44.452Z,56.48
2022-08-24T06:09:17.604Z,56.24
2022-08-24T06:11:47.599Z,56.53
2022-08-24T06:14:20.996Z,56.61
2022-08-24T06:16:52.646Z,56.61
2022-08-24T06:19:21.942Z,56.32
2022-08-24T06:21:53.312Z,55.94
2022-08-24T06:24:44.389Z,56.08
2022-08-24T06:27:25.566Z,56.01
2022-08-24T06:29:59.199Z,56.09
2022-08-24T06:32:27.724Z,56.12
2022-08-24T06:34:58.791Z,55.89
2022-08-24T06:37:29.302Z,55.68
2022-08-24T06:39:59.353Z,56.16
2022-08-24T06:42:29.368Z,56.11
2022-08-24T06:44:59.651Z,56.38
2022-08-24T06:47:28.036Z,56.35
2022-08-24T06:49:59.562Z,56.46
2022-08-24T06:52:27.999Z,56.74
2022-08-24T06:54:56.522Z,56.59
2022-08-24T06:57:25.278Z,56.75
2022-08-24T06:59:54.445Z,56.71
2022-08-24T07:02:24.318Z,56.78
2022-08-24T07:04:52.724Z,56.68
2022-08-24T07:07:21.056Z,56.73
2022-08-24T07:09:49.417Z,56.48
2022-08-24T07:12:17.830Z,56.32
2022-08-24T07:14:46.099Z,56.17
2022-08-24T07:17:14.461Z,55.79
2022-08-24T07:19:44.223Z,55.48
2022-08-24T07:22:13.887Z,55.43
2022-08-24T07:24:43.191Z,55.15
2022-08-24T07:27:11.834Z,54.86
2022-08-24T07:29:59.995Z,54.66
2022-08-24T07:32:29.626Z,54.37
2022-08-24T07:34:59.298Z,54.15
2022-08-24T07:37:40.717Z,53.41
2022-08-24T07:40:10.546Z,52.43
2022-08-24T07:42:39.917Z,51.74
2022-08-24T07:45:09.751Z,50.88
2022-08-24T07:47:41.831Z,50.41
2022-08-24T07:50:15.798Z,50.14
2022-08-24T07:52:45.399Z,50.43
2022-08-24T07:55:15.816Z,49.53
2022-08-24T07:57:46.151Z,48.66
2022-08-24T08:00:19.651Z,48.63
2022-08-24T08:02:48.384Z,49.00
2022-08-24T08:05:20.686Z,48.03
2022-08-24T08:07:52.060Z,47.87
2022-08-24T08:10:21.860Z,47.23
2022-08-24T08:12:50.268Z,46.95
2022-08-24T08:15:19.638Z,46.62
2022-08-24T08:17:48.059Z,46.06
2022-08-24T08:20:25.687Z,45.74
2022-08-24T08:23:11.750Z,45.56
2022-08-24T08:25:42.415Z,45.66
2022-08-24T08:28:25.260Z,44.94
2022-08-24T08:30:55.175Z,43.54
2022-08-24T08:36:07.186Z,43.17
2022-08-24T08:38:37.177Z,43.65
2022-08-24T08:41:36.294Z,43.38
2022-08-24T08:44:15.950Z,43.49
2022-08-24T08:46:58.138Z,43.83
2022-08-24T08:50:08.402Z,43.23
2022-08-24T08:53:10.969Z,42.98
2022-08-24T08:55:43.954Z,41.54
2022-08-24T08:58:39.247Z,41.76
2022-08-24T09:01:20.196Z,41.39
2022-08-24T09:04:22.843Z,41.46
2022-08-24T09:07:12.865Z,40.09
2022-08-24T09:10:10.172Z,38.40
2022-08-24T09:12:54.641Z,39.18
2022-08-24T09:15:44.846Z,38.79
2022-08-24T09:18:31.106Z,38.73
2022-08-24T09:21:39.066Z,39.29
2022-08-24T09:24:26.882Z,39.03
2022-08-24T09:27:10.022Z,38.25
2022-08-24T09:29:56.694Z,38.25
2022-08-24T09:32:39.889Z,38.13
2022-08-24T09:35:26.866Z,38.02
2022-08-24T09:38:02.922Z,37.97
2022-08-24T09:40:44.922Z,37.58
2022-08-24T09:44:07.325Z,38.20
2022-08-24T09:47:23.559Z,38.06
2022-08-24T09:50:29.081Z,37.31
2022-08-24T09:53:33.923Z,36.91
2022-08-24T09:56:38.367Z,37.04
2022-08-24T09:59:43.633Z,37.01
2022-08-24T10:02:35.281Z,36.80
2022-08-24T10:05:14.689Z,36.33
2022-08-24T10:07:56.358Z,36.79
2022-08-24T10:10:36.618Z,37.34
2022-08-24T10:13:21.473Z,37.13
2022-08-24T10:16:17.351Z,37.62
2022-08-24T10:19:01.234Z,38.00
2022-08-24T10:21:49.163Z,38.15
2022-08-24T10:24:39.703Z,37.71
2022-08-24T10:27:32.666Z,37.72
2022-08-24T10:30:56.067Z,38.10
2022-08-24T10:33:28.595Z,37.68
2022-08-24T10:36:32.057Z,38.16
2022-08-24T10:39:43.504Z,38.23
2022-08-24T10:43:03.447Z,38.40
2022-08-24T10:46:03.318Z,37.66
2022-08-24T10:49:14.997Z,38.10
2022-08-24T10:52:05.029Z,38.20
2022-08-24T10:54:37.247Z,37.80
2022-08-24T10:57:12.454Z,37.48
2022-08-24T10:59:56.018Z,37.81
2022-08-24T11:02:35.208Z,37.90
2022-08-24T11:05:09.373Z,37.79
2022-08-24T11:07:53.060Z,37.60
2022-08-24T11:10:28.142Z,37.54
2022-08-24T11:12:56.999Z,37.48
2022-08-24T11:15:29.650Z,36.62
2022-08-24T11:18:03.289Z,36.97
2022-08-24T11:20:35.812Z,36.63
2022-08-24T11:23:08.003Z,36.66
2022-08-24T11:25:40.413Z,37.19
2022-08-24T11:28:32.553Z,36.49
2022-08-24T11:31:03.489Z,36.45
2022-08-24T11:33:36.027Z,36.87
2022-08-24T11:36:21.206Z,37.53
2022-08-24T11:39:13.206Z,36.60
2022-08-24T11:41:54.961Z,35.94
2022-08-24T11:44:41.202Z,36.28
2022-08-24T11:47:46.285Z,36.19
2022-08-24T11:50:35.669Z,36.21
2022-08-24T11:53:24.822Z,36.25
2022-08-24T11:56:07.904Z,36.26
2022-08-24T11:58:53.816Z,36.12
2022-08-24T12:01:29.275Z,36.36
2022-08-24T12:04:19.081Z,36.26
2022-08-24T12:06:58.397Z,35.64
2022-08-24T12:09:48.364Z,35.80
2022-08-24T12:12:23.865Z,35.65
2022-08-24T12:15:02.218Z,35.73
2022-08-24T12:17:39.854Z,35.36
2022-08-24T12:20:25.343Z,35.55
2022-08-24T12:22:57.182Z,35.42
2022-08-24T12:25:45.305Z,35.24
2022-08-24T12:28:21.340Z,35.24
2022-08-24T12:30:50.329Z,35.09
2022-08-24T12:33:22.366Z,34.79
2022-08-24T12:35:57.517Z,34.61
2022-08-24T12:38:30.742Z,34.80
2022-08-24T12:41:14.699Z,34.26
2022-08-24T12:43:53.798Z,34.49
2022-08-24T12:46:25.516Z,34.40
2022-08-24T12:48:59.692Z,34.43
2022-08-24T12:51:47.667Z,35.26
2022-08-24T12:54:37.297Z,35.09
2022-08-24T12:57:35.282Z,34.47
2022-08-24T13:00:11.109Z,34.31
2022-08-24T13:02:48.414Z,33.92
2022-08-24T13:05:21.165Z,33.90
2022-08-24T13:07:52.543Z,34.95
2022-08-24T13:10:42.305Z,34.12
2022-08-24T13:13:18.430Z,34.39
2022-08-24T13:16:03.353Z,33.88
2022-08-24T13:19:09.719Z,33.59
2022-08-24T13:21:54.285Z,33.60
2022-08-24T13:24:59.634Z,33.40
2022-08-24T13:28:06.881Z,33.55
2022-08-24T13:31:04.237Z,33.21
2022-08-24T13:33:38.454Z,33.33
2022-08-24T13:36:47.940Z,32.88
2022-08-24T13:39:51.173Z,32.95
2022-08-24T13:42:41.537Z,33.21
2022-08-24T13:45:33.905Z,33.15
2022-08-24T13:48:30.465Z,33.17
2022-08-24T13:51:21.605Z,32.93
2022-08-24T13:54:08.572Z,33.46
2022-08-24T13:57:10.170Z,33.21
2022-08-24T14:00:05.657Z,33.17
2022-08-24T14:02:57.390Z,32.66
2022-08-24T14:05:37.073Z,32.21
2022-08-24T14:08:26.604Z,32.27
2022-08-24T14:11:09.612Z,32.14
2022-08-24T14:13:56.779Z,32.10
2022-08-24T14:17:02.544Z,31.31
2022-08-24T14:19:44.138Z,30.63
2022-08-24T14:22:31.519Z,30.87
2022-08-24T14:25:18.289Z,30.77
2022-08-24T14:27:49.435Z,30.79
2022-08-24T14:30:47.631Z,30.30
2022-08-24T14:33:32.824Z,30.59
2022-08-24T14:36:20.094Z,30.36
2022-08-24T14:39:00.493Z,30.67
2022-08-24T14:41:52.070Z,30.62
2022-08-24T14:44:51.972Z,31.90
2022-08-24T14:47:38.923Z,31.26
2022-08-24T14:50:15.378Z,31.34
2022-08-24T14:52:54.908Z,30.74
2022-08-24T14:55:32.996Z,30.47
2022-08-24T14:58:29.153Z,31.02
2022-08-24T15:01:32.783Z,31.18
2022-08-24T15:04:16.224Z,31.07
2022-08-24T15:07:23.881Z,31.05
2022-08-24T15:09:53.992Z,31.53
2022-08-24T15:12:44.183Z,31.59
2022-08-24T15:15:19.035Z,31.60
2022-08-24T15:18:00.355Z,31.74
2022-08-24T15:20:48.171Z,31.72
2022-08-24T15:23:24.662Z,31.64
2022-08-24T15:26:00.437Z,31.64
2022-08-24T15:28:35.900Z,32.20
2022-08-24T15:31:10.116Z,32.16
2022-08-24T15:33:55.951Z,32.25
2022-08-24T15:36:24.542Z,32.69
2022-08-24T15:38:53.266Z,32.91
2022-08-24T15:41:25.981Z,32.78
2022-08-24T15:44:00.835Z,32.59
2022-08-24T15:46:34.905Z,32.80
2022-08-24T15:49:08.025Z,33.30
2022-08-24T15:51:53.281Z,33.16
2022-08-24T15:54:35.822Z,33.01
2022-08-24T15:57:11.116Z,33.11
2022-08-24T15:59:51.761Z,33.26
2022-08-24T16:02:26.903Z,33.14
2022-08-24T16:05:10.863Z,32.93
2022-08-24T16:08:10.967Z,32.99
2022-08-24T16:10:43.642Z,33.10
2022-08-24T16:13:23.516Z,32.96
2022-08-24T16:16:02.278Z,32.93
2022-08-24T16:18:49.915Z,33.16
2022-08-24T16:21:22.750Z,33.01
2022-08-24T16:24:02.028Z,33.06
2022-08-24T16:26:33.928Z,33.00
2022-08-24T16:29:05.873Z,32.99
2022-08-24T16:31:52.878Z,32.85
2022-08-24T16:34:32.579Z,32.90
2022-08-24T16:37:01.019Z,32.62
2022-08-24T16:39:29.355Z,32.95
2022-08-24T16:42:03.583Z,32.56
2022-08-24T16:44:37.029Z,32.67
2022-08-24T16:47:08.570Z,32.64
2022-08-24T16:49:39.203Z,32.93
2022-08-24T16:52:08.923Z,33.34
2022-08-24T16:54:37.319Z,33.27
2022-08-24T16:57:13.434Z,33.40
2022-08-24T16:59:45.387Z,33.73
2022-08-24T17:02:17.287Z,33.81
2022-08-24T17:04:46.479Z,33.81
2022-08-24T17:07:18.439Z,33.89
2022-08-24T17:09:48.491Z,33.97
2022-08-24T17:12:17.018Z,33.87
2022-08-24T17:14:45.397Z,34.00
2022-08-24T17:17:21.340Z,34.31
2022-08-24T17:19:53.094Z,34.12
2022-08-24T17:22:22.597Z,34.63
2022-08-24T17:24:52.009Z,34.82
2022-08-24T17:27:22.881Z,35.06
2022-08-24T17:29:51.485Z,35.25
2022-08-24T17:32:21.168Z,35.07
2022-08-24T17:34:49.555Z,35.22
2022-08-24T17:37:18.679Z,35.54
2022-08-24T17:39:58.472Z,35.44
2022-08-24T17:42:50.187Z,36.15
2022-08-24T17:45:16.473Z,36.03
2022-08-24T17:47:46.468Z,36.42
2022-08-24T17:50:19.309Z,36.36
2022-08-24T17:52:48.444Z,36.47
2022-08-24T17:55:25.292Z,36.39
2022-08-24T17:57:53.960Z,36.76
2022-08-24T18:00:22.645Z,37.14
2022-08-24T18:02:52.356Z,36.80
2022-08-24T18:05:21.846Z,37.31
2022-08-24T18:07:54.746Z,37.11
2022-08-24T18:10:26.155Z,37.66
2022-08-24T18:12:54.867Z,37.21
2022-08-24T18:15:33.634Z,37.25
2022-08-24T18:18:09.435Z,37.80
2022-08-24T18:20:41.674Z,38.06
2022-08-24T18:23:11.927Z,38.17
2022-08-24T18:25:47.864Z,38.06
2022-08-24T18:28:17.830Z,38.10
2022-08-24T18:30:46.557Z,38.42
2022-08-24T18:33:17.523Z,38.82
2022-08-24T18:35:47.648Z,38.96
2022-08-24T18:38:16.053Z,39.20
2022-08-24T18:40:52.113Z,39.47
2022-08-24T18:43:23.250Z,39.61
2022-08-24T18:45:52.189Z,39.82
2022-08-24T18:48:22.006Z,39.49
2022-08-24T18:50:50.858Z,39.71
2022-08-24T18:53:19.667Z,40.16
2022-08-24T18:55:49.428Z,40.24
2022-08-24T18:58:17.954Z,40.58
2022-08-24T19:00:47.138Z,40.34
2022-08-24T19:03:21.169Z,40.63
2022-08-24T19:05:49.763Z,40.68
2022-08-24T19:08:18.172Z,41.11
2022-08-24T19:10:46.887Z,41.12
2022-08-24T19:13:18.354Z,41.60
2022-08-24T19:15:48.137Z,41.69
2022-08-24T19:18:19.276Z,41.68
2022-08-24T19:20:51.699Z,41.61
2022-08-24T19:23:23.745Z,41.97
2022-08-24T19:25:54.580Z,41.82
2022-08-24T19:28:25.581Z,42.03
2022-08-24T19:30:56.999Z,42.02
2022-08-24T19:33:29.706Z,42.27
2022-08-24T19:36:00.541Z,42.66
2022-08-24T19:38:29.325Z,42.87
2022-08-24T19:40:59.564Z,42.73
2022-08-24T19:43:29.453Z,42.81
2022-08-24T19:46:05.601Z,43.04
2022-08-24T19:48:36.389Z,43.11
2022-08-24T19:51:09.753Z,43.45
2022-08-24T19:53:39.307Z,43.41
2022-08-24T19:56:08.906Z,43.35
2022-08-24T19:58:47.278Z,43.27
2022-08-24T20:01:22.111Z,43.28
2022-08-24T20:03:50.986Z,43.53
2022-08-24T20:06:23.862Z,43.57
2022-08-24T20:08:53.405Z,43.80
2022-08-24T20:11:25.327Z,43.89
2022-08-24T20:13:54.399Z,43.85
2022-08-24T20:16:24.851Z,44.23
2022-08-24T20:18:53.449Z,44.32
2022-08-24T20:21:27.200Z,44.51
2022-08-24T20:24:00.451Z,44.65
2022-08-24T20:26:32.817Z,44.54
2022-08-24T20:29:01.222Z,45.01
2022-08-24T20:31:29.928Z,44.85
2022-08-24T20:33:58.770Z,45.14
2022-08-24T20:36:33.960Z,44.94
2022-08-24T20:39:03.871Z,45.13
2022-08-24T20:41:33.182Z,45.08
2022-08-24T20:44:01.665Z,45.37
2022-08-24T20:46:31.249Z,45.58
2022-08-24T20:49:01.073Z,45.62
2022-08-24T20:51:31.106Z,45.62
2022-08-24T20:54:01.870Z,45.63
2022-08-24T20:56:32.690Z,45.80
2022-08-24T20:59:03.426Z,46.03
2022-08-24T21:01:32.153Z,45.97
2022-08-24T21:04:05.118Z,46.10
2022-08-24T21:06:35.698Z,46.19
2022-08-24T21:09:05.791Z,46.26
2022-08-24T21:11:34.537Z,46.34
2022-08-24T21:14:06.038Z,46.48
2022-08-24T21:16:35.715Z,46.53
2022-08-24T21:19:04.172Z,46.53
2022-08-24T21:21:34.826Z,46.58
2022-08-24T21:24:04.738Z,46.79
2022-08-24T21:26:34.674Z,46.71
2022-08-24T21:29:05.791Z,46.87
2022-08-24T21:31:35.117Z,46.80
2022-08-24T21:34:20.882Z,47.04
2022-08-24T21:36:52.669Z,47.12
2022-08-24T21:39:22.546Z,47.24
2022-08-24T21:41:51.128Z,47.33
2022-08-24T21:44:19.453Z,47.47
2022-08-24T21:46:49.630Z,47.46
2022-08-24T21:49:18.054Z,47.64
2022-08-24T21:51:46.432Z,47.79
2022-08-24T21:54:16.169Z,47.71
2022-08-24T21:56:44.519Z,47.92
2022-08-24T21:59:13.156Z,47.91
2022-08-24T22:01:42.007Z,47.93
2022-08-24T22:04:11.329Z,47.74
2022-08-24T22:06:40.215Z,48.11
2022-08-24T22:09:09.023Z,48.28
2022-08-24T22:11:38.760Z,48.16
2022-08-24T22:14:07.345Z,48.10
2022-08-24T22:16:37.060Z,48.35
2022-08-24T22:19:06.196Z,48.32
2022-08-24T22:21:36.163Z,48.37
2022-08-24T22:24:05.477Z,48.42
2022-08-24T22:26:35.222Z,48.54
2022-08-24T22:29:06.843Z,48.45
2022-08-24T22:31:39.555Z,48.66
2022-08-24T22:34:11.953Z,48.57
2022-08-24T22:36:45.466Z,48.73
2022-08-24T22:39:14.674Z,48.97
2022-08-24T22:41:43.919Z,48.94
2022-08-24T22:44:22.400Z,49.05
2022-08-24T22:46:53.030Z,48.92
2022-08-24T22:49:23.516Z,48.96
2022-08-24T22:51:52.061Z,49.12
2022-08-24T22:54:21.482Z,49.30
2022-08-24T22:56:52.591Z,49.21
2022-08-24T22:59:25.455Z,49.09
2022-08-24T23:01:56.190Z,49.49
2022-08-24T23:04:29.239Z,49.54
2022-08-24T23:31:53.642Z,49.65
2022-08-24T23:34:23.161Z,50.04
2022-08-24T23:40:57.153Z,50.31
2022-08-24T23:43:25.474Z,50.37
2022-08-24T23:45:55.270Z,50.10
2022-08-24T23:48:25.011Z,50.28
2022-08-24T23:50:53.538Z,50.36
2022-08-24T23:53:22.021Z,50.30
2022-08-24T23:55:50.409Z,50.23
2022-08-24T23:58:19.901Z,50.62
